Time;durP1;ratioP1;P1;durP2;ratioP2;P2;SDS_P1;SDS_P2;PMS_P1;PMS_P2;Temp;Humidity;BMP_temperature;BMP_pressure;BME280_temperature;BME280_humidity;BME280_pressure;Samples;Min_cycle;Max_cycle;Signal;HPM_P1;HPM_P2
2022/03/15 00:01:04;;;;;;;4.40;2.03;;;8.20;99.90;;;;;;4954300;28;20218;-73
2022/03/15 00:03:33;;;;;;;4.43;2.00;;;8.10;99.90;;;;;;4953840;28;20211;-73
2022/03/15 00:05:59;;;;;;;4.37;2.13;;;8.00;99.90;;;;;;4954002;28;20211;-73
2022/03/15 00:08:26;;;;;;;5.50;2.43;;;7.90;99.90;;;;;;4953873;28;20227;-73
2022/03/15 00:10:58;;;;;;;6.67;2.27;;;7.90;99.90;;;;;;4954203;28;20299;-72
2022/03/15 00:13:28;;;;;;;4.20;2.30;;;8.00;99.90;;;;;;4956812;28;20769;-73
2022/03/15 00:15:54;;;;;;;3.70;2.03;;;8.10;99.90;;;;;;4953781;28;20300;-73
2022/03/15 00:18:21;;;;;;;4.20;2.10;;;8.10;99.90;;;;;;4953532;28;20586;-73
2022/03/15 00:20:49;;;;;;;5.17;2.33;;;8.10;99.90;;;;;;4953675;28;20675;-74
2022/03/15 00:23:16;;;;;;;7.43;2.10;;;8.00;99.90;;;;;;4968337;28;20201;-73
2022/03/15 00:25:43;;;;;;;5.47;1.80;;;8.10;99.90;;;;;;4972062;28;20219;-74
2022/03/15 00:28:10;;;;;;;3.50;2.30;;;8.00;99.90;;;;;;4972565;28;20227;-73
2022/03/15 00:30:37;;;;;;;7.13;2.30;;;8.00;99.90;;;;;;4972554;28;20210;-74
2022/03/15 00:33:04;;;;;;;4.20;2.10;;;8.00;99.90;;;;;;4972902;28;20214;-74
2022/03/15 00:35:31;;;;;;;6.93;2.20;;;8.00;99.90;;;;;;4972756;28;20211;-74
2022/03/15 00:37:59;;;;;;;7.10;2.70;;;8.00;99.90;;;;;;4967869;28;20235;-73
2022/03/15 00:40:26;;;;;;;2.70;2.33;;;8.00;99.90;;;;;;4962830;28;20219;-74
2022/03/15 00:42:53;;;;;;;8.33;2.63;;;8.00;99.90;;;;;;4973068;28;20203;-72
2022/03/15 00:45:22;;;;;;;5.77;2.17;;;8.00;99.90;;;;;;4958593;28;20255;-73
2022/03/15 00:47:49;;;;;;;5.93;2.07;;;7.90;99.90;;;;;;4957571;28;20703;-73
2022/03/15 00:50:16;;;;;;;6.10;2.40;;;7.90;99.90;;;;;;4957313;28;20635;-74
2022/03/15 00:52:44;;;;;;;6.73;2.37;;;7.90;99.90;;;;;;4957756;28;20212;-74
2022/03/15 00:55:12;;;;;;;7.53;2.33;;;7.90;99.90;;;;;;4957687;28;20212;-74
2022/03/15 00:57:39;;;;;;;2.97;2.33;;;8.00;99.90;;;;;;4973817;28;20261;-74
2022/03/15 01:00:08;;;;;;;4.93;2.20;;;8.00;99.90;;;;;;4976839;28;20245;-72
2022/03/15 01:02:35;;;;;;;6.40;2.43;;;8.00;99.90;;;;;;4976662;28;20211;-73
2022/03/15 01:05:03;;;;;;;5.97;2.17;;;8.10;99.90;;;;;;4976683;28;20207;-73
2022/03/15 01:07:30;;;;;;;6.10;2.30;;;8.10;99.90;;;;;;4976050;28;20231;-73
2022/03/15 01:09:56;;;;;;;4.40;2.53;;;8.00;99.90;;;;;;4976199;28;20291;-73
2022/03/15 01:12:24;;;;;;;3.87;2.40;;;8.00;99.90;;;;;;4976508;28;20208;-73
2022/03/15 01:14:51;;;;;;;7.83;2.50;;;8.00;99.90;;;;;;4971696;28;20641;-74
2022/03/15 01:17:18;;;;;;;6.80;2.50;;;8.00;99.90;;;;;;4957346;28;20220;-74
2022/03/15 01:19:45;;;;;;;4.87;2.20;;;7.90;99.90;;;;;;4956784;28;20235;-72
2022/03/15 01:22:12;;;;;;;5.10;2.20;;;8.00;99.90;;;;;;4957142;28;20647;-73
2022/03/15 01:24:39;;;;;;;4.37;2.47;;;8.10;99.90;;;;;;4956442;28;20208;-73
2022/03/15 01:27:06;;;;;;;4.67;2.50;;;8.00;99.90;;;;;;4956965;28;20216;-73
2022/03/15 01:29:34;;;;;;;5.50;2.70;;;8.00;99.90;;;;;;4956990;28;20212;-74
2022/03/15 01:32:01;;;;;;;6.33;1.83;;;7.90;99.90;;;;;;4959844;28;20722;-75
2022/03/15 01:34:28;;;;;;;4.97;2.23;;;8.00;99.90;;;;;;4956729;28;20212;-73
2022/03/15 01:36:55;;;;;;;4.20;2.17;;;7.90;99.90;;;;;;4955855;28;20267;-74
2022/03/15 01:39:21;;;;;;;4.43;1.97;;;7.80;99.90;;;;;;4958986;28;20735;-73
2022/03/15 01:41:48;;;;;;;5.20;2.30;;;7.80;99.90;;;;;;4956673;28;20554;-74
2022/03/15 01:44:17;;;;;;;4.43;2.57;;;7.70;99.90;;;;;;4956511;28;20214;-74
2022/03/15 01:46:46;;;;;;;4.03;2.40;;;7.80;99.90;;;;;;4956620;28;20563;-74
2022/03/15 01:49:14;;;;;;;6.70;2.13;;;7.80;99.90;;;;;;4956764;28;20259;-74
2022/03/15 01:51:42;;;;;;;5.80;2.50;;;7.70;99.90;;;;;;4974325;28;20211;-74
2022/03/15 01:54:10;;;;;;;9.03;2.40;;;7.70;99.90;;;;;;4970677;28;20211;-74
2022/03/15 01:56:40;;;;;;;4.33;2.40;;;7.70;99.90;;;;;;4975133;28;20223;-73
2022/03/15 01:59:08;;;;;;;5.00;2.37;;;7.70;99.90;;;;;;4974704;28;20354;-73
2022/03/15 02:01:35;;;;;;;8.00;2.90;;;7.70;99.90;;;;;;4975029;28;20207;-72
2022/03/15 02:04:04;;;;;;;4.77;2.07;;;7.70;99.90;;;;;;4975462;28;20204;-75
2022/03/15 02:06:30;;;;;;;5.40;2.63;;;7.70;99.90;;;;;;4974516;28;20234;-72
2022/03/15 02:08:57;;;;;;;4.63;2.40;;;7.70;99.90;;;;;;4974202;28;20231;-73
2022/03/15 02:11:28;;;;;;;5.43;2.53;;;7.70;99.90;;;;;;4954957;28;20255;-72
2022/03/15 02:13:55;;;;;;;5.60;2.00;;;7.70;99.90;;;;;;4954778;28;20659;-73
2022/03/15 02:16:22;;;;;;;8.03;2.83;;;7.80;99.90;;;;;;4955088;28;20216;-73
2022/03/15 02:18:49;;;;;;;5.37;2.30;;;7.70;99.90;;;;;;4955211;28;20242;-73
2022/03/15 02:21:17;;;;;;;5.43;2.17;;;7.70;99.90;;;;;;4955313;28;20212;-74
2022/03/15 02:23:44;;;;;;;6.53;2.30;;;7.70;99.90;;;;;;4955631;28;20234;-72
2022/03/15 02:26:10;;;;;;;3.40;2.13;;;7.70;99.90;;;;;;4954706;28;20212;-74
2022/03/15 02:28:37;;;;;;;4.77;2.47;;;7.80;99.90;;;;;;4955305;28;20239;-74
2022/03/15 02:31:04;;;;;;;7.07;2.30;;;7.80;99.90;;;;;;4961020;28;20248;-72
2022/03/15 02:33:31;;;;;;;7.30;3.03;;;7.80;99.90;;;;;;4974735;28;20230;-73
2022/03/15 02:35:58;;;;;;;5.30;2.33;;;7.90;99.90;;;;;;4974041;28;20213;-73
2022/03/15 02:38:27;;;;;;;4.50;2.10;;;7.90;99.90;;;;;;4974347;28;20231;-74
2022/03/15 02:40:54;;;;;;;2.47;1.90;;;7.90;99.90;;;;;;4972860;28;20211;-73
2022/03/15 02:43:21;;;;;;;5.77;2.13;;;7.90;99.90;;;;;;4971094;28;20655;-73
2022/03/15 02:45:48;;;;;;;3.83;2.00;;;7.80;99.90;;;;;;4974543;28;20230;-72
2022/03/15 02:48:15;;;;;;;4.43;2.70;;;7.80;99.90;;;;;;4974469;28;20231;-73
2022/03/15 02:50:41;;;;;;;3.77;2.13;;;7.70;99.90;;;;;;4974425;28;20211;-72
2022/03/15 02:53:08;;;;;;;6.27;2.30;;;7.70;99.90;;;;;;4968026;28;20679;-73
2022/03/15 02:55:37;;;;;;;6.47;2.30;;;7.80;99.90;;;;;;4958932;28;20287;-72
2022/03/15 02:58:04;;;;;;;6.30;2.60;;;7.80;99.90;;;;;;4954851;28;20236;-73
2022/03/15 03:00:31;;;;;;;7.53;2.23;;;7.80;99.90;;;;;;4955159;28;20235;-73
2022/03/15 03:02:58;;;;;;;4.73;2.30;;;7.90;99.90;;;;;;4954886;28;20212;-73
2022/03/15 03:05:25;;;;;;;5.17;2.23;;;7.80;99.90;;;;;;4955066;28;20212;-74
2022/03/15 03:07:52;;;;;;;3.50;2.10;;;7.80;99.90;;;;;;4954201;28;20235;-74
2022/03/15 03:10:20;;;;;;;5.57;2.30;;;7.70;99.90;;;;;;4955803;28;20298;-74
2022/03/15 03:12:49;;;;;;;3.10;2.03;;;7.70;99.90;;;;;;4954840;28;20361;-73
2022/03/15 03:15:22;;;;;;;3.73;2.03;;;7.70;99.90;;;;;;4954784;28;20212;-73
2022/03/15 03:17:49;;;;;;;5.03;1.90;;;7.80;99.90;;;;;;4955150;28;20228;-72
2022/03/15 03:20:21;;;;;;;6.47;2.20;;;7.80;99.90;;;;;;4954554;28;20243;-74
2022/03/15 03:22:50;;;;;;;5.43;2.70;;;7.80;99.90;;;;;;4954816;28;20290;-73
2022/03/15 03:25:18;;;;;;;5.43;2.20;;;7.80;99.90;;;;;;4954487;28;20275;-74
2022/03/15 03:27:46;;;;;;;6.97;2.07;;;7.80;99.90;;;;;;4957294;28;20698;-72
2022/03/15 03:30:15;;;;;;;6.53;2.60;;;7.80;99.90;;;;;;4969060;28;20222;-72
2022/03/15 03:32:43;;;;;;;7.80;2.23;;;7.80;99.90;;;;;;4973926;28;20211;-73
2022/03/15 03:35:10;;;;;;;4.43;2.27;;;7.80;99.90;;;;;;4973283;28;20222;-72
2022/03/15 03:37:37;;;;;;;4.17;2.40;;;7.80;99.90;;;;;;4973329;28;20227;-73
2022/03/15 03:40:07;;;;;;;3.80;2.10;;;7.80;99.90;;;;;;4973342;28;20235;-72
2022/03/15 03:42:34;;;;;;;7.83;2.50;;;7.80;99.90;;;;;;4973550;28;20218;-72
2022/03/15 03:45:01;;;;;;;3.40;1.90;;;7.70;99.90;;;;;;4972364;28;20302;-72
2022/03/15 03:47:30;;;;;;;5.53;2.50;;;7.80;99.90;;;;;;4956945;28;20224;-73
2022/03/15 03:49:57;;;;;;;3.50;2.10;;;7.70;99.90;;;;;;4953957;28;20215;-72
2022/03/15 03:52:23;;;;;;;3.87;2.47;;;7.70;99.90;;;;;;4953828;29;20667;-72
2022/03/15 03:54:50;;;;;;;5.37;2.50;;;7.80;99.90;;;;;;4964668;28;20214;-72
2022/03/15 03:57:17;;;;;;;4.10;2.53;;;7.80;99.90;;;;;;4973508;28;20629;-72
2022/03/15 03:59:44;;;;;;;4.87;2.40;;;7.90;99.90;;;;;;4973922;28;20241;-72
2022/03/15 04:02:11;;;;;;;6.80;2.23;;;7.80;99.90;;;;;;4973320;28;20207;-72
2022/03/15 04:04:39;;;;;;;5.10;2.40;;;7.80;99.90;;;;;;4973348;28;20218;-73
2022/03/15 04:07:11;;;;;;;5.77;2.30;;;7.80;99.90;;;;;;4973851;28;20682;-72
2022/03/15 04:09:38;;;;;;;3.50;2.33;;;7.90;99.90;;;;;;4973115;28;20221;-72
2022/03/15 04:12:06;;;;;;;3.87;2.20;;;7.80;99.90;;;;;;4964341;28;20567;-73
2022/03/15 04:14:34;;;;;;;5.07;2.70;;;7.70;99.90;;;;;;4952787;28;20208;-72
2022/03/15 04:17:01;;;;;;;6.50;2.87;;;7.70;99.90;;;;;;4953342;28;20219;-73
2022/03/15 04:19:28;;;;;;;4.70;2.77;;;7.60;99.90;;;;;;4953821;28;20599;-72
2022/03/15 04:21:56;;;;;;;4.20;2.77;;;7.70;99.90;;;;;;4957757;28;20226;-73
2022/03/15 04:24:23;;;;;;;6.57;2.40;;;7.80;99.90;;;;;;4958040;28;20219;-72
2022/03/15 04:26:50;;;;;;;3.97;1.97;;;7.70;99.90;;;;;;4957640;28;20208;-72
2022/03/15 04:29:17;;;;;;;6.43;2.60;;;7.80;99.90;;;;;;4961623;28;20226;-73
2022/03/15 04:31:44;;;;;;;6.57;2.90;;;7.70;99.90;;;;;;4968572;28;20206;-73
2022/03/15 04:34:11;;;;;;;6.07;2.13;;;7.80;99.90;;;;;;4976768;28;20658;-72
2022/03/15 04:36:39;;;;;;;3.97;2.30;;;7.90;99.90;;;;;;4976825;28;20203;-73
2022/03/15 04:39:07;;;;;;;6.23;2.40;;;7.80;99.90;;;;;;4976723;28;20259;-72
2022/03/15 04:41:34;;;;;;;4.87;2.10;;;7.80;99.90;;;;;;4976979;28;20215;-72
2022/03/15 04:44:01;;;;;;;3.80;1.97;;;7.80;99.90;;;;;;4976685;28;20203;-73
2022/03/15 04:46:27;;;;;;;3.93;2.37;;;7.80;99.90;;;;;;4977080;28;20678;-72
2022/03/15 04:48:55;;;;;;;5.37;2.77;;;7.80;99.90;;;;;;4976692;28;20231;-72
2022/03/15 04:51:22;;;;;;;4.30;2.40;;;7.70;99.90;;;;;;4975491;28;20211;-73
2022/03/15 04:53:49;;;;;;;4.33;2.20;;;7.70;99.90;;;;;;4973364;28;20207;-73
2022/03/15 04:56:18;;;;;;;6.07;2.20;;;7.80;99.90;;;;;;4976853;28;20211;-72
2022/03/15 04:58:45;;;;;;;4.90;2.50;;;7.90;99.90;;;;;;4976614;28;20711;-73
2022/03/15 05:01:11;;;;;;;7.03;2.60;;;7.90;99.90;;;;;;4975851;28;20239;-72
2022/03/15 05:03:38;;;;;;;3.20;2.00;;;7.90;99.90;;;;;;4975978;28;20218;-72
2022/03/15 05:06:05;;;;;;;6.47;2.20;;;8.00;99.90;;;;;;4976050;28;20258;-72
2022/03/15 05:08:32;;;;;;;3.83;2.23;;;8.00;99.90;;;;;;4974136;28;20219;-73
2022/03/15 05:11:08;;;;;;;4.93;2.53;;;8.00;99.90;;;;;;4957220;28;20207;-73
2022/03/15 05:13:39;;;;;;;4.60;2.20;;;8.00;99.90;;;;;;4956950;28;20216;-73
2022/03/15 05:16:07;;;;;;;5.63;2.10;;;8.10;99.90;;;;;;4957123;28;20223;-72
2022/03/15 05:18:34;;;;;;;4.13;1.73;;;8.20;99.90;;;;;;4956670;28;20599;-72
2022/03/15 05:21:01;;;;;;;4.70;2.27;;;8.20;99.90;;;;;;4956595;28;20235;-72
2022/03/15 05:23:28;;;;;;;7.77;1.87;;;8.20;99.90;;;;;;4956838;28;20208;-72
2022/03/15 05:25:55;;;;;;;8.90;2.83;;;8.10;99.90;;;;;;4956012;28;20235;-73
2022/03/15 05:28:22;;;;;;;3.17;1.90;;;8.10;99.90;;;;;;4956393;28;20232;-73
2022/03/15 05:30:50;;;;;;;4.10;2.00;;;8.20;99.90;;;;;;4960419;28;20222;-74
2022/03/15 05:33:17;;;;;;;5.70;2.50;;;8.20;99.90;;;;;;4975988;28;20666;-72
2022/03/15 05:35:44;;;;;;;4.13;2.30;;;8.20;99.90;;;;;;4975643;28;20207;-73
2022/03/15 05:38:11;;;;;;;3.97;2.07;;;8.30;99.90;;;;;;4975486;28;20227;-72
2022/03/15 05:40:38;;;;;;;8.43;2.20;;;8.20;99.90;;;;;;4975704;28;20245;-73
2022/03/15 05:43:05;;;;;;;3.20;2.20;;;8.10;99.90;;;;;;4960241;28;20212;-72
2022/03/15 05:45:32;;;;;;;4.27;2.37;;;7.90;99.90;;;;;;4956801;28;20215;-72
2022/03/15 05:48:00;;;;;;;5.80;2.30;;;8.00;99.90;;;;;;4956479;28;20226;-72
2022/03/15 05:50:27;;;;;;;5.67;1.97;;;8.10;99.90;;;;;;4958477;28;20274;-74
2022/03/15 05:52:54;;;;;;;5.40;2.43;;;8.10;99.90;;;;;;4974831;28;20219;-73
2022/03/15 05:55:21;;;;;;;4.53;1.60;;;8.10;99.90;;;;;;4974663;28;20233;-74
2022/03/15 05:57:48;;;;;;;4.73;1.93;;;8.20;99.90;;;;;;4975014;28;20235;-72
2022/03/15 06:00:16;;;;;;;5.07;2.10;;;8.20;99.90;;;;;;4970069;28;20314;-74
2022/03/15 06:02:43;;;;;;;5.03;1.97;;;8.30;99.90;;;;;;4975298;28;20758;-74
2022/03/15 06:05:12;;;;;;;6.17;1.93;;;8.40;99.90;;;;;;4974461;28;20204;-74
2022/03/15 06:07:45;;;;;;;4.07;2.23;;;8.30;99.90;;;;;;4974927;28;20227;-72
2022/03/15 06:10:11;;;;;;;3.43;1.50;;;8.40;99.90;;;;;;4975851;28;20262;-73
2022/03/15 06:12:38;;;;;;;3.07;1.60;;;8.30;99.90;;;;;;4975182;28;20211;-73
2022/03/15 06:15:06;;;;;;;6.63;2.20;;;8.10;99.90;;;;;;4975392;28;20214;-73
2022/03/15 06:17:34;;;;;;;4.93;1.73;;;8.10;99.90;;;;;;4971532;28;20234;-73
2022/03/15 06:20:00;;;;;;;10.47;1.90;;;8.20;99.90;;;;;;4972922;28;20260;-73
2022/03/15 06:22:29;;;;;;;4.87;2.23;;;8.40;99.90;;;;;;4974550;28;20204;-73
2022/03/15 06:24:55;;;;;;;4.10;1.90;;;8.50;99.90;;;;;;4970322;28;20209;-74
2022/03/15 06:27:22;;;;;;;2.77;1.70;;;8.50;99.90;;;;;;4972716;28;20233;-75
2022/03/15 06:29:50;;;;;;;6.30;1.90;;;8.60;99.90;;;;;;4974682;28;20211;-74
2022/03/15 06:32:18;;;;;;;5.33;1.60;;;8.60;99.90;;;;;;4973913;28;20203;-72
2022/03/15 06:34:45;;;;;;;4.73;2.10;;;8.70;99.90;;;;;;4974553;28;20203;-73
2022/03/15 06:37:12;;;;;;;7.37;2.33;;;8.70;99.90;;;;;;4974023;28;20231;-73
2022/03/15 06:39:40;;;;;;;11.03;2.53;;;8.70;99.90;;;;;;4973479;28;20286;-73
2022/03/15 06:42:11;;;;;;;7.00;2.10;;;8.80;99.90;;;;;;4973802;28;20764;-73
2022/03/15 06:44:38;;;;;;;9.33;2.90;;;8.80;99.90;;;;;;4973904;28;20218;-74
2022/03/15 06:47:05;;;;;;;4.10;2.03;;;8.90;99.90;;;;;;4974032;28;20295;-74
2022/03/15 06:49:32;;;;;;;4.50;2.17;;;8.90;99.90;;;;;;4972944;28;20210;-73
2022/03/15 06:51:58;;;;;;;6.93;2.73;;;9.00;99.90;;;;;;4959184;28;20678;-74
2022/03/15 06:54:26;;;;;;;3.73;1.73;;;9.10;99.90;;;;;;4973909;28;20211;-73
2022/03/15 06:56:56;;;;;;;2.60;1.60;;;9.10;99.90;;;;;;4974445;28;20235;-73
2022/03/15 06:59:23;;;;;;;5.97;2.17;;;9.10;99.90;;;;;;4973957;28;20211;-74
2022/03/15 07:01:50;;;;;;;4.27;2.07;;;9.00;99.90;;;;;;4973979;28;20235;-74
2022/03/15 07:04:17;;;;;;;2.67;1.57;;;9.10;99.90;;;;;;4972832;28;20199;-72
2022/03/15 07:06:44;;;;;;;9.77;2.20;;;9.10;99.90;;;;;;4972460;28;20246;-73
2022/03/15 07:09:11;;;;;;;4.10;1.67;;;9.20;99.90;;;;;;4970407;28;20219;-73
2022/03/15 07:11:38;;;;;;;4.53;1.53;;;9.20;99.90;;;;;;4972025;28;20195;-73
2022/03/15 07:14:06;;;;;;;5.50;1.80;;;9.30;99.90;;;;;;4972293;28;20258;-72
2022/03/15 07:16:34;;;;;;;4.83;2.33;;;9.50;99.90;;;;;;4973110;28;20774;-73
2022/03/15 07:19:00;;;;;;;4.03;1.90;;;9.60;99.90;;;;;;4972279;28;20234;-73
2022/03/15 07:21:28;;;;;;;3.83;1.80;;;9.60;99.90;;;;;;4973455;28;20238;-73
2022/03/15 07:23:55;;;;;;;3.47;2.03;;;9.70;99.90;;;;;;4972040;28;20303;-74
2022/03/15 07:26:21;;;;;;;3.37;1.77;;;9.70;99.90;;;;;;4969117;28;20208;-74
2022/03/15 07:28:48;;;;;;;4.53;1.70;;;9.70;99.90;;;;;;4973459;28;20231;-74
2022/03/15 07:31:16;;;;;;;3.87;1.90;;;9.50;99.90;;;;;;4972997;28;20210;-72
2022/03/15 07:33:43;;;;;;;10.43;1.90;;;9.50;99.90;;;;;;4973060;28;20206;-74
2022/03/15 07:36:10;;;;;;;3.57;1.80;;;9.30;99.90;;;;;;4973571;28;20211;-74
2022/03/15 07:38:37;;;;;;;10.27;2.50;;;9.30;99.90;;;;;;4973690;28;20231;-72
2022/03/15 07:41:04;;;;;;;5.90;2.00;;;9.40;99.90;;;;;;4973671;28;20235;-73
2022/03/15 07:43:31;;;;;;;6.57;2.07;;;9.40;99.90;;;;;;4964541;28;20201;-74
2022/03/15 07:45:57;;;;;;;5.80;2.37;;;9.40;99.90;;;;;;4954708;28;20266;-73
2022/03/15 07:48:25;;;;;;;4.43;2.13;;;8.90;99.90;;;;;;4953134;28;20224;-73
2022/03/15 07:50:52;;;;;;;4.57;2.13;;;8.90;99.90;;;;;;4954094;28;20588;-73
2022/03/15 07:53:20;;;;;;;4.67;1.70;;;8.90;99.90;;;;;;4954270;28;20204;-72
2022/03/15 07:55:46;;;;;;;8.97;1.80;;;9.00;99.90;;;;;;4953628;28;20616;-72
2022/03/15 07:58:13;;;;;;;3.17;1.60;;;9.20;99.90;;;;;;4954291;28;20224;-72
2022/03/15 08:00:40;;;;;;;3.07;1.60;;;9.00;99.90;;;;;;4957127;28;20235;-72
2022/03/15 08:03:07;;;;;;;4.93;1.67;;;8.90;99.90;;;;;;4954108;28;20212;-73
2022/03/15 08:05:35;;;;;;;6.17;2.23;;;8.90;99.90;;;;;;4954539;28;20207;-73
2022/03/15 08:08:05;;;;;;;3.90;1.47;;;9.10;99.90;;;;;;4953474;28;20232;-72
2022/03/15 08:10:32;;;;;;;3.73;1.77;;;9.00;99.90;;;;;;4954370;28;20220;-73
2022/03/15 08:12:58;;;;;;;4.90;1.60;;;9.00;99.90;;;;;;4954355;28;20212;-73
2022/03/15 08:15:25;;;;;;;5.17;1.60;;;9.10;99.90;;;;;;4968867;28;20199;-73
2022/03/15 08:17:52;;;;;;;3.37;1.40;;;9.00;99.90;;;;;;4965957;28;20258;-73
2022/03/15 08:20:19;;;;;;;5.93;1.50;;;8.90;99.90;;;;;;4972563;28;20211;-74
2022/03/15 08:22:48;;;;;;;2.73;1.60;;;8.90;99.90;;;;;;4971568;28;20203;-72
2022/03/15 08:25:14;;;;;;;3.20;1.50;;;8.80;99.90;;;;;;4969288;28;20199;-73
2022/03/15 08:27:41;;;;;;;4.03;1.37;;;8.90;99.90;;;;;;4971074;28;20226;-73
2022/03/15 08:30:09;;;;;;;4.00;1.40;;;8.80;99.90;;;;;;4970926;28;20200;-73
2022/03/15 08:32:36;;;;;;;2.97;1.50;;;8.70;99.90;;;;;;4971139;28;20203;-73
2022/03/15 08:35:03;;;;;;;5.07;1.40;;;8.80;99.90;;;;;;4970646;28;20211;-72
2022/03/15 08:37:30;;;;;;;3.70;1.27;;;8.90;99.90;;;;;;4968059;28;20223;-72
2022/03/15 08:39:59;;;;;;;4.77;1.37;;;9.00;99.90;;;;;;4972390;28;20207;-73
2022/03/15 08:42:26;;;;;;;2.63;1.10;;;9.00;99.90;;;;;;4972448;28;20245;-72
2022/03/15 08:44:53;;;;;;;3.00;1.17;;;9.10;99.90;;;;;;4972582;28;20223;-72
2022/03/15 08:47:19;;;;;;;2.70;1.10;;;9.10;99.90;;;;;;4973154;28;20227;-73
2022/03/15 08:49:46;;;;;;;6.00;1.40;;;9.10;99.90;;;;;;4971245;28;20200;-73
2022/03/15 08:52:13;;;;;;;4.63;1.67;;;9.10;99.90;;;;;;4971247;28;20210;-73
2022/03/15 08:54:40;;;;;;;7.03;1.90;;;9.20;99.90;;;;;;4971254;28;20749;-73
2022/03/15 08:57:08;;;;;;;2.90;1.40;;;9.20;99.90;;;;;;4972672;28;20586;-73
2022/03/15 08:59:35;;;;;;;3.00;1.20;;;9.20;99.90;;;;;;4967963;28;20977;-72
2022/03/15 09:02:02;;;;;;;3.70;1.40;;;9.20;99.90;;;;;;4971375;28;20223;-74
2022/03/15 09:04:29;;;;;;;4.13;1.70;;;9.30;99.90;;;;;;4972076;28;20227;-72
2022/03/15 09:06:56;;;;;;;5.73;1.60;;;9.30;99.90;;;;;;4970473;28;20206;-73
2022/03/15 09:09:25;;;;;;;2.93;1.23;;;9.40;99.90;;;;;;4975101;28;20206;-75
2022/03/15 09:11:52;;;;;;;2.00;1.20;;;9.40;99.90;;;;;;4975234;28;20242;-73
2022/03/15 09:14:20;;;;;;;4.63;1.37;;;9.50;99.90;;;;;;4975499;28;20203;-74
2022/03/15 09:16:47;;;;;;;3.53;1.43;;;9.60;99.90;;;;;;4976566;28;20207;-74
2022/03/15 09:19:14;;;;;;;2.70;1.47;;;9.60;99.90;;;;;;4976173;28;20230;-73
2022/03/15 09:21:41;;;;;;;4.63;1.37;;;9.70;99.90;;;;;;4969666;28;21203;-74
2022/03/15 09:24:08;;;;;;;3.87;1.30;;;9.70;99.90;;;;;;4973145;28;20208;-75
2022/03/15 09:26:35;;;;;;;4.83;1.60;;;9.80;99.90;;;;;;4974146;28;20557;-74
2022/03/15 09:29:01;;;;;;;4.13;1.27;;;9.90;99.90;;;;;;4974562;28;20232;-74
2022/03/15 09:31:30;;;;;;;4.97;1.47;;;9.90;99.90;;;;;;4975672;28;20206;-74
2022/03/15 09:33:56;;;;;;;1.67;0.93;;;9.90;99.90;;;;;;4975878;28;20293;-73
2022/03/15 09:36:23;;;;;;;1.73;0.90;;;10.10;99.90;;;;;;4975572;28;20218;-75
2022/03/15 09:38:51;;;;;;;2.73;1.00;;;10.30;99.90;;;;;;4973713;28;20227;-75
2022/03/15 09:41:18;;;;;;;1.37;0.93;;;10.70;99.90;;;;;;4972917;28;20231;-75
2022/03/15 09:43:47;;;;;;;2.53;1.50;;;11.10;99.90;;;;;;4972043;28;20286;-73
2022/03/15 09:46:15;;;;;;;3.67;1.33;;;11.20;99.90;;;;;;4975329;28;20243;-73
2022/03/15 09:48:45;;;;;;;4.40;1.30;;;11.00;99.90;;;;;;4975125;28;20278;-74
2022/03/15 09:51:14;;;;;;;2.50;1.07;;;11.10;99.90;;;;;;4975351;28;20215;-75
2022/03/15 09:53:42;;;;;;;3.07;1.43;;;11.00;99.90;;;;;;4975503;28;20302;-74
2022/03/15 09:56:09;;;;;;;4.63;1.83;;;11.10;99.90;;;;;;4969724;28;20218;-73
2022/03/15 09:58:36;;;;;;;2.97;1.20;;;11.50;99.90;;;;;;4974183;28;20223;-75
2022/03/15 10:01:03;;;;;;;5.10;1.30;;;11.80;99.90;;;;;;4974537;28;20203;-75
2022/03/15 10:03:30;;;;;;;3.07;1.37;;;12.00;99.90;;;;;;4974487;28;20207;-74
2022/03/15 10:05:59;;;;;;;1.67;1.10;;;12.20;99.90;;;;;;4974960;28;20274;-74
2022/03/15 10:08:26;;;;;;;4.10;1.33;;;12.40;99.90;;;;;;4975071;28;20230;-73
2022/03/15 10:10:53;;;;;;;2.53;0.90;;;12.70;99.90;;;;;;4975038;28;20211;-73
2022/03/15 10:13:21;;;;;;;3.67;1.00;;;12.90;99.90;;;;;;4974108;28;20265;-75
2022/03/15 10:15:55;;;;;;;3.67;1.27;;;13.00;99.90;;;;;;4974624;28;20218;-74
2022/03/15 10:18:23;;;;;;;5.43;1.20;;;13.00;99.90;;;;;;4973580;28;20724;-73
2022/03/15 10:20:49;;;;;;;10.03;1.83;;;13.00;99.90;;;;;;4973455;28;20222;-75
2022/03/15 10:23:22;;;;;;;4.30;1.50;;;13.00;99.90;;;;;;4954659;28;20231;-75
2022/03/15 10:25:52;;;;;;;2.07;1.20;;;12.90;99.90;;;;;;4955197;28;20204;-73
2022/03/15 10:28:20;;;;;;;2.63;1.30;;;12.90;99.90;;;;;;4955455;28;20247;-73
2022/03/15 10:30:48;;;;;;;3.30;1.00;;;12.80;99.90;;;;;;4960105;28;20201;-75
2022/03/15 10:33:17;;;;;;;1.90;1.30;;;12.70;99.90;;;;;;4974093;28;20203;-75
2022/03/15 10:35:46;;;;;;;4.70;1.20;;;12.70;99.90;;;;;;4974263;28;20212;-74
2022/03/15 10:38:14;;;;;;;2.83;1.20;;;12.80;99.90;;;;;;4973240;28;20714;-76
2022/03/15 10:40:44;;;;;;;2.13;1.30;;;12.80;99.90;;;;;;4973391;28;20207;-76
2022/03/15 10:43:12;;;;;;;2.43;1.30;;;13.00;99.90;;;;;;4973879;28;20238;-75
2022/03/15 10:45:46;;;;;;;2.17;0.87;;;13.00;99.90;;;;;;4974556;28;20207;-75
2022/03/15 10:48:18;;;;;;;2.87;0.87;;;13.00;99.90;;;;;;4974241;28;20232;-74
2022/03/15 10:50:54;;;;;;;0.70;0.40;;;13.00;99.90;;;;;;4974085;28;20207;-75
2022/03/15 10:53:23;;;;;;;1.30;0.20;;;13.10;99.90;;;;;;4965943;28;20686;-75
2022/03/15 10:55:51;;;;;;;0.50;0.30;;;12.90;99.90;;;;;;4971558;28;20230;-73
2022/03/15 10:58:23;;;;;;;1.60;0.43;;;12.80;99.90;;;;;;4973967;28;20698;-73
2022/03/15 11:00:54;;;;;;;0.40;0.30;;;12.80;99.90;;;;;;4973447;28;20578;-72
2022/03/15 11:03:29;;;;;;;0.83;0.40;;;13.00;99.90;;;;;;4970924;28;20231;-73
2022/03/15 11:05:57;;;;;;;2.30;0.40;;;13.10;99.90;;;;;;4964813;28;20210;-75
2022/03/15 11:08:24;;;;;;;0.60;0.40;;;13.00;99.90;;;;;;4973788;28;20689;-73
2022/03/15 11:10:54;;;;;;;0.40;0.30;;;13.10;99.90;;;;;;4971657;28;20208;-73
2022/03/15 11:13:28;;;;;;;0.70;0.37;;;13.20;99.90;;;;;;4973361;28;20282;-73
2022/03/15 11:15:57;;;;;;;0.33;0.20;;;13.10;99.90;;;;;;4960592;28;20206;-74
2022/03/15 11:18:27;;;;;;;0.43;0.30;;;13.00;99.90;;;;;;4972105;28;20223;-74
2022/03/15 11:20:54;;;;;;;4.07;0.60;;;12.90;99.90;;;;;;4972421;28;20223;-74
2022/03/15 11:23:23;;;;;;;0.90;0.20;;;12.90;99.90;;;;;;4973760;28;20277;-74
2022/03/15 11:25:55;;;;;;;0.40;0.30;;;13.00;99.90;;;;;;4972838;28;20207;-75
2022/03/15 11:28:25;;;;;;;0.53;0.30;;;13.00;99.90;;;;;;4973074;28;20227;-76
2022/03/15 11:30:54;;;;;;;0.27;0.20;;;13.10;99.90;;;;;;4973491;28;20678;-73
2022/03/15 11:33:21;;;;;;;0.67;0.37;;;13.10;99.90;;;;;;4974099;28;20213;-74
2022/03/15 11:35:49;;;;;;;0.63;0.20;;;13.00;99.90;;;;;;4973388;28;20215;-75
2022/03/15 11:38:16;;;;;;;0.83;0.30;;;12.80;99.90;;;;;;4973499;28;20223;-75
2022/03/15 11:40:43;;;;;;;0.30;0.30;;;13.10;99.90;;;;;;4973720;28;20214;-75
2022/03/15 11:43:30;;;;;;;0.63;0.20;;;13.30;99.90;;;;;;4972941;28;20832;-75
2022/03/15 11:46:00;;;;;;;0.60;0.30;;;13.20;99.90;;;;;;4972259;28;20207;-75
2022/03/15 11:48:37;;;;;;;0.33;0.20;;;13.20;99.90;;;;;;4972676;28;20584;-76
2022/03/15 11:51:14;;;;;;;0.50;0.23;;;13.10;99.90;;;;;;4972051;28;20237;-76
2022/03/15 11:53:48;;;;;;;0.63;0.30;;;12.90;99.90;;;;;;4964260;28;20227;-75
2022/03/15 11:56:27;;;;;;;0.73;0.30;;;12.90;99.90;;;;;;4967842;28;20214;-75
2022/03/15 11:58:57;;;;;;;0.30;0.20;;;13.00;99.90;;;;;;4968662;28;20279;-75
2022/03/15 12:01:24;;;;;;;0.20;0.20;;;12.80;99.90;;;;;;4955468;28;20223;-75
2022/03/15 12:03:54;;;;;;;0.40;0.30;;;12.60;99.90;;;;;;4969043;28;20238;-75
2022/03/15 12:06:24;;;;;;;0.30;0.20;;;12.60;99.90;;;;;;4960463;28;20212;-74
2022/03/15 12:08:55;;;;;;;1.20;0.20;;;12.70;99.90;;;;;;4954861;28;20232;-75
2022/03/15 12:11:35;;;;;;;1.27;0.30;;;12.50;99.90;;;;;;4967941;28;20196;-75
2022/03/15 12:14:11;;;;;;;0.60;0.30;;;12.40;99.90;;;;;;4965011;28;20207;-76
2022/03/15 12:16:41;;;;;;;0.30;0.20;;;12.50;99.90;;;;;;4953835;28;20211;-76
2022/03/15 12:19:15;;;;;;;0.70;0.20;;;12.50;99.90;;;;;;4968008;28;20274;-75
2022/03/15 12:21:49;;;;;;;0.40;0.13;;;12.80;99.90;;;;;;4972290;28;20211;-75
2022/03/15 12:24:18;;;;;;;2.20;0.27;;;13.10;99.90;;;;;;4972118;28;20245;-74
2022/03/15 12:26:48;;;;;;;0.87;0.20;;;13.20;99.90;;;;;;4972832;28;20203;-73
2022/03/15 12:29:17;;;;;;;0.50;0.40;;;13.70;99.90;;;;;;4972619;28;20594;-74
2022/03/15 12:31:46;;;;;;;0.20;0.20;;;14.20;99.90;;;;;;4972780;28;20231;-75
2022/03/15 12:34:14;;;;;;;0.30;0.20;;;14.40;99.90;;;;;;4972718;28;20213;-75
2022/03/15 12:36:48;;;;;;;0.30;0.20;;;14.40;99.90;;;;;;4972369;28;20215;-73
2022/03/15 12:39:17;;;;;;;0.30;0.10;;;14.40;99.90;;;;;;4972740;28;20237;-75
2022/03/15 12:41:44;;;;;;;0.30;0.10;;;14.60;99.90;;;;;;4974243;28;20761;-75
2022/03/15 12:44:11;;;;;;;0.40;0.20;;;14.80;99.90;;;;;;4976673;28;20207;-73
2022/03/15 12:46:41;;;;;;;0.37;0.10;;;14.80;99.90;;;;;;4976096;28;20203;-75
2022/03/15 12:49:10;;;;;;;0.20;0.10;;;14.90;99.90;;;;;;4961086;28;20228;-75
2022/03/15 12:51:44;;;;;;;0.53;0.20;;;15.00;99.90;;;;;;4971438;28;20207;-75
2022/03/15 12:54:11;;;;;;;0.20;0.10;;;14.60;99.90;;;;;;4975865;28;20666;-74
2022/03/15 12:56:47;;;;;;;0.20;0.10;;;14.30;99.90;;;;;;4976434;28;20211;-75
2022/03/15 12:59:22;;;;;;;1.17;0.20;;;14.10;99.90;;;;;;4976293;28;20231;-75